Time;durP1;ratioP1;P1;durP2;ratioP2;P2;SDS_P1;SDS_P2;PMS_P1;PMS_P2;Temp;Humidity;BMP_temperature;BMP_pressure;BME280_temperature;BME280_humidity;BME280_pressure;Samples;Min_cycle;Max_cycle;Signal;HPM_P1;HPM_P2
2021/09/12 00:02:22;;;;;;;8.20;6.38;;;19.80;99.00;;;;;;4973218;28;20053;-82
2021/09/12 00:04:48;;;;;;;12.38;7.43;;;19.80;99.00;;;;;;4972777;28;20039;-81
2021/09/12 00:07:13;;;;;;;10.27;7.13;;;19.80;99.20;;;;;;4972808;28;20058;-80
2021/09/12 00:09:39;;;;;;;8.05;6.72;;;19.80;99.10;;;;;;4972770;28;20039;-81
2021/09/12 00:12:06;;;;;;;10.15;6.60;;;19.80;99.10;;;;;;4971970;28;20122;-81
2021/09/12 00:14:32;;;;;;;8.98;7.15;;;19.80;99.10;;;;;;4972036;28;20417;-80
2021/09/12 00:16:57;;;;;;;8.98;6.55;;;19.80;99.00;;;;;;4973053;28;20035;-80
2021/09/12 00:19:24;;;;;;;10.27;6.40;;;19.90;99.10;;;;;;4976584;28;20632;-80
2021/09/12 00:21:51;;;;;;;10.18;7.10;;;19.90;99.10;;;;;;4976779;28;20126;-82
2021/09/12 00:24:16;;;;;;;10.25;6.32;;;19.80;99.20;;;;;;4976425;28;20042;-82
2021/09/12 00:26:42;;;;;;;8.60;6.40;;;19.80;99.20;;;;;;4976922;28;20030;-83
2021/09/12 00:29:07;;;;;;;9.90;6.78;;;19.90;99.20;;;;;;4976755;28;20031;-82
2021/09/12 00:31:33;;;;;;;9.00;7.10;;;19.90;99.20;;;;;;4976383;28;20351;-83
2021/09/12 00:33:59;;;;;;;11.60;6.47;;;19.90;99.30;;;;;;4976808;28;20046;-81
2021/09/12 00:36:24;;;;;;;12.25;7.38;;;19.90;99.20;;;;;;4976292;28;20146;-83
2021/09/12 00:38:50;;;;;;;9.50;6.22;;;19.80;99.40;;;;;;4976034;28;20042;-83
2021/09/12 00:41:16;;;;;;;7.97;6.25;;;19.80;99.60;;;;;;4976361;28;20126;-83
2021/09/12 00:43:41;;;;;;;9.27;6.85;;;19.70;99.80;;;;;;4975196;28;20122;-82
2021/09/12 00:46:07;;;;;;;12.32;7.72;;;19.70;99.90;;;;;;4976452;28;20488;-83
2021/09/12 00:48:34;;;;;;;8.95;6.70;;;19.70;99.90;;;;;;4976281;28;20039;-82
2021/09/12 00:51:00;;;;;;;9.07;6.70;;;19.70;99.90;;;;;;4976269;28;20019;-83
2021/09/12 00:53:29;;;;;;;8.98;6.40;;;19.60;99.90;;;;;;4975632;28;20025;-82
2021/09/12 00:55:55;;;;;;;11.45;7.28;;;19.60;99.90;;;;;;4975999;28;20117;-83
2021/09/12 00:58:21;;;;;;;9.57;6.90;;;19.60;99.90;;;;;;4975915;28;20401;-82
2021/09/12 01:00:46;;;;;;;8.40;6.20;;;19.60;99.90;;;;;;4975891;28;20038;-81
2021/09/12 01:03:12;;;;;;;12.73;6.57;;;19.70;99.90;;;;;;4975882;28;20027;-80
2021/09/12 01:05:38;;;;;;;9.15;6.85;;;19.70;99.90;;;;;;4976019;28;20097;-81
2021/09/12 01:08:06;;;;;;;11.18;7.00;;;19.60;99.90;;;;;;4975910;28;20051;-81
2021/09/12 01:10:32;;;;;;;8.65;5.57;;;19.60;99.90;;;;;;4976719;28;20437;-80
2021/09/12 01:12:58;;;;;;;7.57;5.50;;;19.60;99.90;;;;;;4975922;28;20049;-80
2021/09/12 01:15:23;;;;;;;9.00;5.68;;;19.70;99.90;;;;;;4975772;28;20448;-80
2021/09/12 01:17:49;;;;;;;7.72;5.38;;;19.70;99.90;;;;;;4976231;28;20042;-81
2021/09/12 01:20:15;;;;;;;6.82;5.15;;;19.70;99.90;;;;;;4975922;28;20057;-80
2021/09/12 01:22:40;;;;;;;8.32;5.22;;;19.70;99.90;;;;;;4975961;28;20038;-80
2021/09/12 01:25:07;;;;;;;8.23;5.80;;;19.70;99.80;;;;;;4975816;28;20027;-80
2021/09/12 01:27:33;;;;;;;6.80;5.20;;;19.70;99.80;;;;;;4974733;28;20035;-80
2021/09/12 01:30:00;;;;;;;7.72;4.70;;;19.60;99.90;;;;;;4975307;28;20039;-77
2021/09/12 01:32:25;;;;;;;8.50;5.35;;;19.70;99.90;;;;;;4976228;28;20031;-80
2021/09/12 01:34:51;;;;;;;5.85;4.55;;;19.70;99.90;;;;;;4976052;28;20380;-80
2021/09/12 01:37:17;;;;;;;5.68;4.38;;;19.70;99.90;;;;;;4995345;28;20038;-80
2021/09/12 01:39:42;;;;;;;7.95;5.10;;;19.80;99.80;;;;;;4994898;28;20042;-80
2021/09/12 01:42:08;;;;;;;8.43;4.72;;;19.70;99.90;;;;;;4995526;28;20026;-79
2021/09/12 01:44:33;;;;;;;7.63;5.30;;;19.60;99.90;;;;;;4995714;28;20566;-80
2021/09/12 01:46:59;;;;;;;8.68;5.18;;;19.60;99.90;;;;;;4994884;28;20037;-80
2021/09/12 01:49:25;;;;;;;7.32;5.35;;;19.60;99.90;;;;;;4993389;28;20031;-80
2021/09/12 01:51:52;;;;;;;7.05;4.90;;;19.60;99.90;;;;;;4994296;28;20030;-81
2021/09/12 01:54:18;;;;;;;10.80;5.75;;;19.60;99.90;;;;;;4994494;28;20416;-80
2021/09/12 01:56:44;;;;;;;8.60;5.88;;;19.60;99.90;;;;;;4993489;28;20109;-81
2021/09/12 01:59:09;;;;;;;9.70;6.03;;;19.70;99.90;;;;;;4994001;28;20030;-81
2021/09/12 02:01:35;;;;;;;6.90;5.07;;;19.60;99.90;;;;;;4994275;28;20038;-81
2021/09/12 02:04:01;;;;;;;7.68;5.93;;;19.70;99.90;;;;;;4994064;28;20034;-81
2021/09/12 02:06:27;;;;;;;7.97;5.50;;;19.70;99.90;;;;;;4993929;28;20042;-80
2021/09/12 02:08:52;;;;;;;7.15;5.47;;;19.70;99.90;;;;;;4994367;28;20468;-79
2021/09/12 02:11:19;;;;;;;6.47;5.20;;;19.70;99.90;;;;;;4994195;28;20113;-79
2021/09/12 02:13:45;;;;;;;6.95;5.15;;;19.70;99.90;;;;;;4993905;28;20065;-80
2021/09/12 02:16:11;;;;;;;10.70;5.05;;;19.60;99.90;;;;;;4993111;28;20066;-79
2021/09/12 02:18:37;;;;;;;7.40;5.20;;;19.70;99.90;;;;;;4993788;28;20487;-80
2021/09/12 02:21:03;;;;;;;8.50;5.22;;;19.70;99.90;;;;;;4993887;28;20050;-80
2021/09/12 02:23:28;;;;;;;6.82;4.78;;;19.70;99.90;;;;;;4994378;28;20023;-79
2021/09/12 02:25:54;;;;;;;10.98;4.93;;;19.60;99.90;;;;;;4993987;28;20065;-81
2021/09/12 02:28:19;;;;;;;6.32;4.97;;;19.70;99.90;;;;;;4994202;28;20027;-81
2021/09/12 02:30:46;;;;;;;7.07;4.57;;;19.70;99.90;;;;;;4994152;28;20034;-81
2021/09/12 02:33:11;;;;;;;6.35;4.43;;;19.70;99.90;;;;;;4993885;28;20057;-81
2021/09/12 02:35:37;;;;;;;5.43;4.25;;;19.70;99.90;;;;;;4992807;28;20023;-82
2021/09/12 02:38:02;;;;;;;6.03;4.65;;;19.70;99.90;;;;;;4992770;28;20393;-81
2021/09/12 02:40:29;;;;;;;6.10;4.43;;;19.70;99.90;;;;;;4992786;28;20068;-81
2021/09/12 02:42:54;;;;;;;6.60;4.28;;;19.70;99.90;;;;;;4993566;28;20042;-81
2021/09/12 02:45:20;;;;;;;6.57;4.72;;;19.70;99.90;;;;;;4993735;28;20054;-81
2021/09/12 02:47:46;;;;;;;5.15;3.92;;;19.70;99.90;;;;;;4993965;28;20030;-81
2021/09/12 02:50:11;;;;;;;7.85;4.30;;;19.60;99.90;;;;;;4993526;28;20030;-81
2021/09/12 02:52:37;;;;;;;4.75;4.00;;;19.70;99.90;;;;;;4993422;28;20026;-81
2021/09/12 02:55:04;;;;;;;6.30;3.97;;;19.60;99.90;;;;;;4993357;28;20118;-81
2021/09/12 02:57:30;;;;;;;5.85;4.55;;;19.70;99.90;;;;;;4993315;28;20034;-81
2021/09/12 02:59:56;;;;;;;8.10;4.28;;;19.70;99.90;;;;;;4993112;28;20442;-80
2021/09/12 03:02:22;;;;;;;6.45;4.55;;;19.70;99.90;;;;;;4992841;28;20035;-81
2021/09/12 03:04:48;;;;;;;6.03;4.60;;;19.70;99.90;;;;;;4993048;28;20049;-81
2021/09/12 03:07:14;;;;;;;8.52;5.30;;;19.70;99.90;;;;;;4993012;28;20046;-80
2021/09/12 03:09:39;;;;;;;6.63;4.88;;;19.70;99.90;;;;;;4992811;28;20045;-81
2021/09/12 03:12:05;;;;;;;7.55;5.13;;;19.60;99.90;;;;;;4992875;28;20022;-80
2021/09/12 03:14:31;;;;;;;7.78;5.80;;;19.60;99.90;;;;;;4993769;28;20026;-80
2021/09/12 03:16:56;;;;;;;9.57;6.78;;;19.60;99.90;;;;;;4992765;28;20129;-81
2021/09/12 03:19:22;;;;;;;11.50;6.35;;;19.60;99.90;;;;;;4993032;28;20226;-80
2021/09/12 03:21:48;;;;;;;11.43;7.13;;;19.60;99.90;;;;;;4986319;28;20061;-82
2021/09/12 03:24:13;;;;;;;11.98;7.00;;;19.60;99.90;;;;;;4978459;28;20045;-80
2021/09/12 03:26:39;;;;;;;10.07;7.18;;;19.60;99.90;;;;;;4993561;28;20031;-79
2021/09/12 03:29:04;;;;;;;11.15;7.15;;;19.60;99.90;;;;;;4993990;28;20038;-81
2021/09/12 03:31:30;;;;;;;13.43;7.60;;;19.60;99.90;;;;;;4994911;28;20096;-80
2021/09/12 03:33:55;;;;;;;13.57;7.85;;;19.70;99.90;;;;;;4991526;28;20319;-80
2021/09/12 03:36:21;;;;;;;12.27;8.68;;;19.70;99.90;;;;;;4992736;28;20049;-81
2021/09/12 03:38:47;;;;;;;15.73;9.07;;;19.70;99.90;;;;;;4992689;28;20364;-80
2021/09/12 03:41:12;;;;;;;15.43;8.50;;;19.60;99.90;;;;;;4992458;28;20161;-80
2021/09/12 03:43:38;;;;;;;12.38;8.63;;;19.60;99.90;;;;;;4992331;28;20069;-79
2021/09/12 03:46:03;;;;;;;14.65;9.55;;;19.60;99.90;;;;;;4992532;28;20130;-80
2021/09/12 03:48:30;;;;;;;13.68;8.93;;;19.60;99.90;;;;;;4991450;28;20045;-80
2021/09/12 03:50:55;;;;;;;16.42;9.35;;;19.60;99.90;;;;;;4991178;28;20022;-79
2021/09/12 03:53:21;;;;;;;14.35;9.65;;;19.50;99.90;;;;;;4991834;28;20022;-80
2021/09/12 03:55:47;;;;;;;13.77;9.82;;;19.60;99.90;;;;;;4991240;28;20044;-79
2021/09/12 03:58:12;;;;;;;15.98;10.18;;;19.50;99.90;;;;;;4991959;28;20114;-80
2021/09/12 04:00:38;;;;;;;16.73;10.43;;;19.60;99.90;;;;;;4991272;28;20038;-81
2021/09/12 04:03:03;;;;;;;13.35;10.00;;;19.50;99.90;;;;;;4990786;28;20041;-80
2021/09/12 04:05:29;;;;;;;16.40;10.30;;;19.60;99.90;;;;;;4973056;28;20098;-79
2021/09/12 04:07:55;;;;;;;13.05;9.13;;;19.50;99.90;;;;;;4988933;28;20029;-80
2021/09/12 04:10:20;;;;;;;18.42;10.10;;;19.50;99.90;;;;;;4991195;28;20110;-81
2021/09/12 04:12:46;;;;;;;13.15;9.80;;;19.50;99.90;;;;;;4992287;28;20117;-80
2021/09/12 04:15:11;;;;;;;16.10;10.13;;;19.50;99.90;;;;;;4992124;28;20044;-80
2021/09/12 04:17:37;;;;;;;17.08;11.07;;;19.50;99.90;;;;;;4992591;28;20421;-78
2021/09/12 04:20:07;;;;;;;14.82;10.27;;;19.50;99.90;;;;;;4992092;28;20452;-79
2021/09/12 04:22:34;;;;;;;15.63;10.63;;;19.50;99.90;;;;;;4992137;28;20085;-80
2021/09/12 04:25:00;;;;;;;16.27;10.90;;;19.60;99.90;;;;;;4991949;28;20035;-80
2021/09/12 04:27:25;;;;;;;22.05;12.25;;;19.60;99.90;;;;;;4992069;28;20034;-80
2021/09/12 04:29:51;;;;;;;15.82;10.60;;;19.60;99.90;;;;;;4991319;28;20425;-80
2021/09/12 04:32:17;;;;;;;15.48;10.90;;;19.60;99.90;;;;;;4992322;28;20053;-81
2021/09/12 04:34:47;;;;;;;17.70;11.93;;;19.60;99.90;;;;;;4975431;28;20054;-81
2021/09/12 04:37:14;;;;;;;20.02;13.68;;;19.60;99.90;;;;;;4971345;28;20428;-80
2021/09/12 04:39:40;;;;;;;23.77;12.45;;;19.60;99.90;;;;;;4971761;28;20442;-82
2021/09/12 04:42:06;;;;;;;21.60;12.75;;;19.60;99.90;;;;;;4972536;28;20035;-81
2021/09/12 04:44:32;;;;;;;21.67;12.45;;;19.60;99.90;;;;;;4972129;28;20084;-81
2021/09/12 04:46:57;;;;;;;20.42;13.23;;;19.60;99.90;;;;;;4972483;28;20027;-81
2021/09/12 04:49:23;;;;;;;20.25;13.45;;;19.60;99.90;;;;;;4972436;28;20027;-81
2021/09/12 04:51:48;;;;;;;18.33;12.27;;;19.60;99.90;;;;;;4972307;28;20038;-81
2021/09/12 04:54:14;;;;;;;21.23;13.30;;;19.60;99.90;;;;;;4972191;28;20070;-80
2021/09/12 04:56:40;;;;;;;23.70;13.40;;;19.60;99.90;;;;;;4972851;28;20037;-81
2021/09/12 04:59:05;;;;;;;18.77;12.25;;;19.60;99.90;;;;;;4971178;28;20047;-81
2021/09/12 05:01:32;;;;;;;21.85;13.18;;;19.60;99.90;;;;;;4971708;28;20499;-81
2021/09/12 05:03:58;;;;;;;23.77;14.40;;;19.60;99.90;;;;;;4973925;28;20035;-81
2021/09/12 05:06:24;;;;;;;23.02;14.88;;;19.60;99.90;;;;;;4975788;28;20053;-82
2021/09/12 05:08:49;;;;;;;19.83;13.32;;;19.60;99.90;;;;;;4976162;28;20027;-81
2021/09/12 05:11:15;;;;;;;23.38;13.70;;;19.50;99.90;;;;;;4976089;28;20107;-82
2021/09/12 05:13:40;;;;;;;23.35;14.57;;;19.60;99.90;;;;;;4975805;28;20033;-81
2021/09/12 05:16:06;;;;;;;18.83;14.25;;;19.60;99.90;;;;;;4975752;28;20329;-82
2021/09/12 05:18:32;;;;;;;24.00;15.27;;;19.60;99.90;;;;;;4974645;28;20089;-81
2021/09/12 05:20:57;;;;;;;23.48;15.60;;;19.60;99.90;;;;;;4974615;28;20037;-79
2021/09/12 05:23:24;;;;;;;30.73;14.10;;;19.60;99.90;;;;;;4975864;28;20015;-80
2021/09/12 05:25:50;;;;;;;23.92;15.38;;;19.60;99.90;;;;;;4975529;28;20035;-79
2021/09/12 05:28:17;;;;;;;25.55;14.35;;;19.70;99.90;;;;;;4975215;28;20086;-81
2021/09/12 05:30:43;;;;;;;29.27;15.05;;;19.70;99.90;;;;;;4975487;28;20465;-81
2021/09/12 05:33:09;;;;;;;24.88;16.45;;;19.70;99.90;;;;;;4975203;28;20038;-79
2021/09/12 05:35:35;;;;;;;27.15;15.98;;;19.70;99.90;;;;;;4977060;28;20026;-78
2021/09/12 05:38:00;;;;;;;28.73;15.38;;;19.70;99.90;;;;;;4975528;28;20027;-81
2021/09/12 05:40:26;;;;;;;24.58;16.40;;;19.70;99.90;;;;;;4975344;28;20058;-80
2021/09/12 05:42:51;;;;;;;22.65;14.38;;;19.70;99.90;;;;;;4975268;28;20130;-78
2021/09/12 05:45:17;;;;;;;22.92;15.07;;;19.70;99.90;;;;;;4975050;28;20279;-79
2021/09/12 05:47:43;;;;;;;26.90;15.02;;;19.60;99.90;;;;;;4975922;28;20452;-77
2021/09/12 05:50:09;;;;;;;24.85;15.25;;;19.60;99.90;;;;;;4975207;28;20475;-80
2021/09/12 05:52:35;;;;;;;23.73;15.95;;;19.70;99.90;;;;;;4975023;28;20050;-81
2021/09/12 05:55:01;;;;;;;25.85;15.60;;;19.70;99.90;;;;;;4975172;28;20055;-78
2021/09/12 05:57:26;;;;;;;28.17;16.48;;;19.70;99.90;;;;;;4973737;28;20629;-79
2021/09/12 05:59:53;;;;;;;27.80;16.33;;;19.70;99.90;;;;;;4975603;28;20034;-81
2021/09/12 06:02:19;;;;;;;31.60;16.55;;;19.70;99.90;;;;;;4974951;28;20047;-81
2021/09/12 06:04:44;;;;;;;25.27;16.67;;;19.70;99.90;;;;;;4975149;28;20045;-82
2021/09/12 06:07:10;;;;;;;26.30;17.33;;;19.80;99.90;;;;;;4974722;28;20138;-82
2021/09/12 06:09:36;;;;;;;28.92;17.58;;;19.70;99.90;;;;;;4974288;28;20487;-81
2021/09/12 06:12:02;;;;;;;27.20;17.23;;;19.70;99.90;;;;;;4974922;28;20027;-81
2021/09/12 06:14:28;;;;;;;26.63;16.08;;;19.70;99.90;;;;;;4975693;28;20626;-80
2021/09/12 06:16:54;;;;;;;29.15;17.08;;;19.80;99.90;;;;;;4975392;28;20055;-81
2021/09/12 06:19:19;;;;;;;28.00;16.02;;;19.70;99.90;;;;;;4975036;28;20354;-81
2021/09/12 06:21:45;;;;;;;28.88;17.88;;;19.70;99.90;;;;;;4974645;28;20058;-79
2021/09/12 06:24:10;;;;;;;27.00;16.08;;;19.80;99.90;;;;;;4973249;28;20073;-85
2021/09/12 06:26:36;;;;;;;25.63;16.52;;;19.80;99.90;;;;;;4973805;28;20086;-86
2021/09/12 06:29:02;;;;;;;26.27;15.60;;;19.80;99.90;;;;;;4974220;28;20030;-87
2021/09/12 06:31:28;;;;;;;29.20;16.70;;;19.80;99.90;;;;;;4973110;28;20468;-83
2021/09/12 06:33:53;;;;;;;26.85;16.10;;;19.80;99.90;;;;;;4974120;28;20050;-79
2021/09/12 06:36:19;;;;;;;27.52;17.92;;;19.80;99.90;;;;;;4973997;28;20134;-79
2021/09/12 06:38:45;;;;;;;32.35;18.42;;;19.80;99.90;;;;;;4973293;28;20125;-79
2021/09/12 06:41:11;;;;;;;38.30;22.20;;;19.80;99.90;;;;;;4974071;28;20039;-80
2021/09/12 06:43:36;;;;;;;30.52;17.88;;;19.70;99.90;;;;;;4972852;28;20045;-80
2021/09/12 06:46:02;;;;;;;28.67;17.55;;;19.70;99.90;;;;;;4974068;28;20038;-79
2021/09/12 06:48:28;;;;;;;28.77;18.23;;;19.70;99.90;;;;;;4974083;28;20046;-78
2021/09/12 06:50:55;;;;;;;33.38;19.50;;;19.70;99.90;;;;;;4972980;28;20030;-77
2021/09/12 06:53:21;;;;;;;31.23;20.02;;;19.70;99.90;;;;;;4974464;28;20178;-77
2021/09/12 06:55:47;;;;;;;31.73;19.35;;;19.70;99.90;;;;;;4973726;28;20031;-78
2021/09/12 06:58:12;;;;;;;37.90;20.67;;;19.70;99.90;;;;;;4973688;28;20109;-78
2021/09/12 07:00:38;;;;;;;34.75;19.92;;;19.80;99.90;;;;;;4973645;28;20031;-77
2021/09/12 07:03:04;;;;;;;32.67;19.58;;;19.70;99.90;;;;;;4973580;28;20026;-78
2021/09/12 07:05:30;;;;;;;35.88;21.52;;;19.70;99.90;;;;;;4973959;28;20031;-77
2021/09/12 07:07:55;;;;;;;28.27;18.55;;;19.80;99.90;;;;;;4973675;28;20365;-77
2021/09/12 07:10:21;;;;;;;31.65;18.75;;;19.80;99.90;;;;;;4973052;28;20042;-78
2021/09/12 07:12:47;;;;;;;33.88;20.13;;;19.80;99.90;;;;;;4972522;28;20480;-80
2021/09/12 07:15:12;;;;;;;36.33;20.95;;;19.80;99.90;;;;;;4985254;28;20030;-78
2021/09/12 07:17:38;;;;;;;36.95;21.63;;;19.70;99.90;;;;;;4992658;28;20030;-83
2021/09/12 07:20:05;;;;;;;35.70;21.88;;;19.70;99.90;;;;;;4993456;28;20100;-79
2021/09/12 07:22:30;;;;;;;37.05;21.48;;;19.80;99.90;;;;;;4993087;28;20034;-80
2021/09/12 07:24:57;;;;;;;38.85;22.75;;;19.80;99.90;;;;;;4984964;28;20101;-79
2021/09/12 07:27:22;;;;;;;32.85;20.90;;;19.80;99.90;;;;;;4975878;28;20113;-80
2021/09/12 07:29:48;;;;;;;39.00;21.45;;;19.80;99.90;;;;;;4992395;28;20121;-79
2021/09/12 07:32:14;;;;;;;37.35;20.55;;;19.70;99.90;;;;;;4991805;28;20161;-80
2021/09/12 07:34:39;;;;;;;34.35;20.88;;;19.80;99.90;;;;;;4992828;28;20030;-79
2021/09/12 07:37:05;;;;;;;37.20;20.98;;;19.80;99.90;;;;;;4992788;28;20042;-79
2021/09/12 07:39:30;;;;;;;37.70;22.02;;;19.90;99.90;;;;;;4992760;28;20034;-81
2021/09/12 07:41:56;;;;;;;35.50;21.08;;;19.90;99.90;;;;;;4992745;28;20504;-78
2021/09/12 07:44:21;;;;;;;36.25;21.33;;;19.90;99.90;;;;;;4991958;28;20044;-79
2021/09/12 07:46:47;;;;;;;36.40;21.67;;;19.90;99.90;;;;;;4993123;28;20390;-79
2021/09/12 07:49:13;;;;;;;37.75;21.33;;;19.90;99.90;;;;;;4995188;28;20084;-79
2021/09/12 07:51:38;;;;;;;34.47;20.65;;;19.90;99.90;;;;;;4992940;28;20126;-78
2021/09/12 07:54:04;;;;;;;39.47;22.17;;;19.90;99.90;;;;;;4991705;28;20061;-82
2021/09/12 07:56:30;;;;;;;36.17;21.15;;;19.90;99.90;;;;;;4973487;28;20023;-83
2021/09/12 07:58:56;;;;;;;35.35;20.60;;;19.90;99.90;;;;;;4989397;28;20033;-85
2021/09/12 08:01:21;;;;;;;34.42;20.67;;;19.90;99.90;;;;;;4991585;28;20061;-87
2021/09/12 08:03:47;;;;;;;33.22;19.92;;;19.90;99.90;;;;;;4977573;28;20031;-86
2021/09/12 08:06:12;;;;;;;37.97;21.02;;;19.90;99.90;;;;;;4973260;28;20112;-82
2021/09/12 08:08:38;;;;;;;31.88;19.60;;;19.90;99.90;;;;;;4973490;28;20449;-82
2021/09/12 08:11:03;;;;;;;37.15;20.73;;;20.00;99.90;;;;;;4973284;28;20042;-83
2021/09/12 08:13:29;;;;;;;32.25;18.80;;;20.00;99.90;;;;;;4971797;28;20049;-85
2021/09/12 08:15:54;;;;;;;32.90;19.42;;;20.00;99.90;;;;;;4972640;28;20147;-94
2021/09/12 08:18:22;;;;;;;30.00;18.45;;;19.90;99.90;;;;;;4972532;28;20038;-85
2021/09/12 08:20:48;;;;;;;26.88;17.33;;;19.80;99.90;;;;;;4973020;28;20463;-88
2021/09/12 08:23:13;;;;;;;31.67;17.10;;;19.70;99.90;;;;;;4972971;28;20031;-87
2021/09/12 08:25:39;;;;;;;26.73;16.00;;;19.80;99.90;;;;;;4973148;28;20031;-86
2021/09/12 08:28:05;;;;;;;30.83;16.05;;;19.80;99.90;;;;;;4972803;28;20413;-84
2021/09/12 08:30:31;;;;;;;23.85;13.43;;;19.80;99.90;;;;;;4973105;28;20046;-85
2021/09/12 08:32:57;;;;;;;28.05;14.13;;;19.80;99.90;;;;;;4973494;28;20330;-80
2021/09/12 08:35:22;;;;;;;23.17;12.90;;;19.90;99.90;;;;;;4973299;28;20026;-84
2021/09/12 08:37:48;;;;;;;23.13;13.73;;;19.90;99.90;;;;;;4971830;28;20102;-81
2021/09/12 08:40:14;;;;;;;19.58;12.38;;;19.90;99.90;;;;;;4976026;28;20491;-80
2021/09/12 08:42:42;;;;;;;26.40;13.00;;;20.00;99.90;;;;;;4976215;28;20031;-81
2021/09/12 08:45:08;;;;;;;27.20;13.88;;;20.10;99.90;;;;;;4976258;28;20082;-82
2021/09/12 08:47:34;;;;;;;24.90;13.32;;;20.00;99.90;;;;;;4976761;28;20416;-82
2021/09/12 08:50:01;;;;;;;23.63;13.13;;;20.00;99.90;;;;;;4976160;28;20524;-78
2021/09/12 08:52:27;;;;;;;22.17;12.27;;;20.10;99.90;;;;;;4974789;28;20051;-84
2021/09/12 08:54:52;;;;;;;24.25;13.32;;;20.10;99.50;;;;;;4975097;28;20062;-86
2021/09/12 08:57:18;;;;;;;27.83;11.77;;;20.10;99.60;;;;;;4978664;28;20043;-88
2021/09/12 08:59:50;;;;;;;19.88;11.27;;;20.00;99.20;;;;;;4977532;28;20034;-87
2021/09/12 09:02:16;;;;;;;22.13;10.82;;;20.10;99.30;;;;;;4976516;28;20042;-85
2021/09/12 09:04:41;;;;;;;16.95;11.30;;;20.00;99.10;;;;;;4976278;28;20038;-81
2021/09/12 09:07:10;;;;;;;17.08;10.57;;;19.90;99.30;;;;;;4975713;28;20054;-82
2021/09/12 09:09:45;;;;;;;17.98;9.52;;;20.10;99.40;;;;;;4975734;28;20047;-82
2021/09/12 09:12:37;;;;;;;19.15;9.95;;;20.10;99.50;;;;;;4976401;28;20038;-88
2021/09/12 09:15:14;;;;;;;18.88;10.43;;;20.10;99.40;;;;;;4976526;28;20088;-88
2021/09/12 09:17:48;;;;;;;14.90;10.27;;;20.00;99.40;;;;;;4976809;28;20035;-88
2021/09/12 09:20:17;;;;;;;18.10;10.25;;;20.00;99.50;;;;;;4977864;28;20272;-93
2021/09/12 09:22:50;;;;;;;12.52;9.65;;;20.00;99.40;;;;;;4976681;28;20038;-85
2021/09/12 09:25:21;;;;;;;18.23;9.85;;;20.10;99.40;;;;;;4965052;28;20085;-81
2021/09/12 09:27:58;;;;;;;17.50;8.80;;;20.10;99.20;;;;;;4963099;28;20041;-78
2021/09/12 09:30:25;;;;;;;17.15;9.50;;;20.10;99.20;;;;;;4975427;28;20046;-85
2021/09/12 09:32:51;;;;;;;13.90;8.90;;;20.10;99.00;;;;;;4975264;28;20449;-82
2021/09/12 09:35:22;;;;;;;13.02;8.23;;;20.00;98.90;;;;;;4976011;28;20046;-80
2021/09/12 09:37:49;;;;;;;17.73;10.10;;;20.10;99.10;;;;;;4974987;28;20045;-78
2021/09/12 09:40:15;;;;;;;13.80;8.13;;;19.90;98.90;;;;;;4974146;28;20063;-76
2021/09/12 09:42:42;;;;;;;14.38;9.18;;;19.90;98.90;;;;;;4975082;28;20121;-77
2021/09/12 09:45:17;;;;;;;13.93;7.90;;;19.90;99.10;;;;;;4975142;28;20057;-76
2021/09/12 09:47:47;;;;;;;14.63;8.75;;;19.90;99.00;;;;;;4974060;28;20100;-77
2021/09/12 09:50:29;;;;;;;15.27;7.90;;;19.90;98.80;;;;;;4974770;28;20050;-76
2021/09/12 09:52:56;;;;;;;12.93;8.25;;;19.90;98.80;;;;;;4974731;28;20110;-74
2021/09/12 09:55:24;;;;;;;13.20;9.23;;;20.10;98.90;;;;;;4973836;28;20761;-83
2021/09/12 09:57:52;;;;;;;15.75;8.82;;;20.20;98.80;;;;;;4974650;28;20047;-78
2021/09/12 10:00:19;;;;;;;;;;;20.20;98.80;;;;;;4976299;28;20038;-78
2021/09/12 10:02:46;;;;;;;15.00;8.23;;;20.30;98.90;;;;;;4975430;28;19960;-80
2021/09/12 10:05:14;;;;;;;12.93;8.40;;;20.30;98.50;;;;;;4974793;28;20285;-78
2021/09/12 10:07:41;;;;;;;20.60;9.25;;;20.20;98.70;;;;;;4974386;28;20517;-74
2021/09/12 10:10:13;;;;;;;13.85;8.75;;;20.30;98.50;;;;;;4974792;28;20122;-74
2021/09/12 10:12:46;;;;;;;15.75;8.88;;;20.30;98.60;;;;;;4973360;28;20035;-73
2021/09/12 10:15:36;;;;;;;17.08;8.70;;;20.30;98.40;;;;;;4974388;28;20069;-74
2021/09/12 10:18:03;;;;;;;11.63;7.93;;;20.30;98.60;;;;;;4974058;28;20053;-73
2021/09/12 10:20:30;;;;;;;17.77;8.32;;;20.40;98.50;;;;;;4974784;28;20015;-74
2021/09/12 10:23:02;;;;;;;11.55;7.95;;;20.40;98.40;;;;;;4974312;28;20106;-73
2021/09/12 10:25:30;;;;;;;17.88;9.23;;;20.40;98.40;;;;;;4974309;28;20058;-74
2021/09/12 10:28:06;;;;;;;18.25;8.98;;;20.70;98.60;;;;;;4974319;28;20027;-76
2021/09/12 10:30:38;;;;;;;15.25;7.03;;;20.80;98.00;;;;;;4973057;28;20031;-71
2021/09/12 10:33:07;;;;;;;12.23;6.97;;;21.00;97.90;;;;;;4973764;28;20046;-73
2021/09/12 10:35:48;;;;;;;11.20;6.18;;;21.30;96.80;;;;;;4974617;28;20019;-74
2021/09/12 10:38:32;;;;;;;11.18;5.88;;;21.50;96.20;;;;;;4974155;28;20031;-73
2021/09/12 10:41:04;;;;;;;17.80;5.95;;;22.00;95.80;;;;;;4970910;28;20033;-75
2021/09/12 10:43:30;;;;;;;9.02;5.85;;;22.50;94.30;;;;;;4986217;28;20113;-76
2021/09/12 10:46:01;;;;;;;12.63;5.85;;;22.80;93.70;;;;;;4993733;28;20034;-75
2021/09/12 10:48:50;;;;;;;9.25;5.32;;;23.10;93.40;;;;;;4998566;28;20059;-75
2021/09/12 10:51:19;;;;;;;15.52;4.57;;;23.40;93.10;;;;;;5000033;28;20038;-75
2021/09/12 10:53:47;;;;;;;11.18;4.75;;;24.20;94.00;;;;;;4995683;28;20436;-75
2021/09/12 10:56:15;;;;;;;11.05;4.30;;;25.00;91.30;;;;;;4992432;28;20121;-77
2021/09/12 10:58:42;;;;;;;9.75;4.65;;;25.10;90.20;;;;;;4993466;28;20065;-77
2021/09/12 11:01:12;;;;;;;8.70;3.77;;;25.20;90.10;;;;;;4992730;28;20560;-77
2021/09/12 11:03:45;;;;;;;13.48;4.20;;;24.80;89.90;;;;;;4993497;28;20035;-86
2021/09/12 11:06:17;;;;;;;7.82;4.30;;;24.70;90.20;;;;;;4993192;28;20564;-77
2021/09/12 11:08:43;;;;;;;9.20;3.78;;;24.40;90.30;;;;;;4992488;28;20039;-77
2021/09/12 11:11:11;;;;;;;11.18;4.57;;;24.40;89.50;;;;;;4992683;28;20480;-77
2021/09/12 11:13:37;;;;;;;7.78;4.28;;;24.40;89.50;;;;;;4992921;28;20038;-76
2021/09/12 11:16:18;;;;;;;5.75;3.45;;;24.30;89.90;;;;;;4992893;28;20045;-74
2021/09/12 11:18:45;;;;;;;9.68;3.58;;;24.20;89.50;;;;;;4991825;28;20045;-74
2021/09/12 11:21:11;;;;;;;10.20;3.17;;;24.20;89.50;;;;;;4993086;28;20033;-74
2021/09/12 11:23:38;;;;;;;10.55;3.33;;;24.50;88.50;;;;;;4993462;28;20011;-77
2021/09/12 11:26:04;;;;;;;10.02;3.55;;;24.90;89.40;;;;;;4991405;28;20523;-76
2021/09/12 11:28:33;;;;;;;7.32;2.97;;;25.40;86.80;;;;;;4992986;28;20041;-76
2021/09/12 11:30:59;;;;;;;7.65;2.35;;;25.70;84.90;;;;;;4991716;28;20107;-76
2021/09/12 11:33:52;;;;;;;6.32;2.47;;;25.10;84.50;;;;;;4991650;28;20041;-77
2021/09/12 11:36:17;;;;;;;9.40;2.85;;;24.60;85.10;;;;;;4992659;28;20038;-77
2021/09/12 11:38:53;;;;;;;8.35;3.25;;;24.20;86.00;;;;;;4992184;28;20033;-78
2021/09/12 11:41:22;;;;;;;8.13;2.83;;;23.90;87.80;;;;;;4992331;28;20055;-77
2021/09/12 11:43:55;;;;;;;6.07;2.78;;;23.80;88.30;;;;;;4992472;28;20034;-77
2021/09/12 11:46:21;;;;;;;10.75;3.20;;;23.70;87.50;;;;;;4991567;28;20038;-76
2021/09/12 11:49:02;;;;;;;8.95;2.65;;;23.40;87.60;;;;;;4992604;28;20372;-82
2021/09/12 11:51:36;;;;;;;6.90;2.85;;;23.40;87.40;;;;;;4992511;28;20035;-85
2021/09/12 11:54:05;;;;;;;6.47;2.70;;;23.30;87.30;;;;;;4992007;28;20037;-86
2021/09/12 11:56:31;;;;;;;10.55;2.78;;;23.20;88.10;;;;;;4992917;28;20073;-84
2021/09/12 11:58:58;;;;;;;12.65;3.08;;;23.30;89.10;;;;;;4990731;28;20493;-84
2021/09/12 12:01:24;;;;;;;12.93;2.87;;;23.20;88.10;;;;;;4992506;28;20038;-75
2021/09/12 12:03:50;;;;;;;5.88;3.40;;;23.20;89.30;;;;;;4992021;28;20260;-76
2021/09/12 12:06:16;;;;;;;4.30;2.80;;;23.40;88.80;;;;;;4991991;28;20045;-81
2021/09/12 12:09:01;;;;;;;8.98;3.63;;;23.50;88.60;;;;;;4992378;28;20445;-74
2021/09/12 12:11:27;;;;;;;8.77;3.13;;;23.60;88.50;;;;;;4992244;28;20038;-74
2021/09/12 12:13:52;;;;;;;10.05;2.92;;;23.50;87.70;;;;;;4995444;28;20026;-76
2021/09/12 12:16:19;;;;;;;9.65;3.38;;;23.50;88.60;;;;;;4996187;28;20124;-75
2021/09/12 12:18:44;;;;;;;10.82;2.47;;;23.60;88.50;;;;;;4995126;28;20046;-75
2021/09/12 12:21:12;;;;;;;7.00;3.22;;;23.60;88.20;;;;;;4996019;28;20030;-75
2021/09/12 12:23:38;;;;;;;5.07;2.75;;;23.60;88.60;;;;;;4996401;28;20027;-74
2021/09/12 12:26:17;;;;;;;9.45;2.90;;;23.60;88.00;;;;;;4995749;28;20037;-75
2021/09/12 12:28:43;;;;;;;6.25;2.67;;;23.50;87.20;;;;;;4995951;28;20113;-75
2021/09/12 12:31:12;;;;;;;5.85;2.83;;;23.50;87.50;;;;;;4995752;28;20485;-77
2021/09/12 12:33:39;;;;;;;8.27;2.78;;;23.40;87.60;;;;;;4994785;28;20085;-77
2021/09/12 12:36:12;;;;;;;5.40;2.77;;;23.40;87.60;;;;;;4994085;28;20040;-76